sensor_id;sensor_type;location;lat;lon;timestamp;temperature;humidity
7028;DHT22;3555;53.248;10.336;2023-03-16T00:01:02;1.30;99.90
7028;DHT22;3555;53.248;10.336;2023-03-16T00:03:30;1.30;99.90
7028;DHT22;3555;53.248;10.336;2023-03-16T00:05:58;1.50;1.00
7028;DHT22;3555;53.248;10.336;2023-03-16T00:08:25;1.50;1.00
7028;DHT22;3555;53.248;10.336;2023-03-16T00:10:52;1.50;99.90
7028;DHT22;3555;53.248;10.336;2023-03-16T00:13:20;1.60;99.90
7028;DHT22;3555;53.248;10.336;2023-03-16T00:15:52;1.70;99.90
7028;DHT22;3555;53.248;10.336;2023-03-16T00:18:21;1.70;1.00
7028;DHT22;3555;53.248;10.336;2023-03-16T00:20:51;1.70;1.00
7028;DHT22;3555;53.248;10.336;2023-03-16T00:23:21;1.70;1.00
7028;DHT22;3555;53.248;10.336;2023-03-16T00:25:52;1.70;1.00
7028;DHT22;3555;53.248;10.336;2023-03-16T00:28:20;1.50;99.90
7028;DHT22;3555;53.248;10.336;2023-03-16T00:30:48;1.10;99.90
7028;DHT22;3555;53.248;10.336;2023-03-16T00:33:15;0.80;1.00
7028;DHT22;3555;53.248;10.336;2023-03-16T00:35:46;0.60;99.90
7028;DHT22;3555;53.248;10.336;2023-03-16T00:38:15;0.40;12.70
7028;DHT22;3555;53.248;10.336;2023-03-16T00:40:44;0.40;57.00
7028;DHT22;3555;53.248;10.336;2023-03-16T00:43:11;0.50;1.00
7028;DHT22;3555;53.248;10.336;2023-03-16T00:45:38;0.60;99.90
7028;DHT22;3555;53.248;10.336;2023-03-16T00:48:05;0.50;1.00
7028;DHT22;3555;53.248;10.336;2023-03-16T00:50:31;0.40;99.90
7028;DHT22;3555;53.248;10.336;2023-03-16T00:52:58;0.60;99.90
7028;DHT22;3555;53.248;10.336;2023-03-16T00:55:26;0.70;1.00
7028;DHT22;3555;53.248;10.336;2023-03-16T00:57:54;0.60;99.90
7028;DHT22;3555;53.248;10.336;2023-03-16T01:00:21;0.60;1.00
7028;DHT22;3555;53.248;10.336;2023-03-16T01:02:52;0.40;1.00
7028;DHT22;3555;53.248;10.336;2023-03-16T01:05:19;0.20;1.00
7028;DHT22;3555;53.248;10.336;2023-03-16T01:07:47;0.10;99.90
7028;DHT22;3555;53.248;10.336;2023-03-16T01:10:14;0.30;1.00
7028;DHT22;3555;53.248;10.336;2023-03-16T01:12:41;0.40;99.90
7028;DHT22;3555;53.248;10.336;2023-03-16T01:15:11;0.50;99.90
7028;DHT22;3555;53.248;10.336;2023-03-16T01:17:38;0.50;18.10
7028;DHT22;3555;53.248;10.336;2023-03-16T01:20:06;0.60;99.90
7028;DHT22;3555;53.248;10.336;2023-03-16T01:22:36;0.60;1.00
7028;DHT22;3555;53.248;10.336;2023-03-16T01:25:03;0.40;99.90
7028;DHT22;3555;53.248;10.336;2023-03-16T01:27:30;0.20;1.00
7028;DHT22;3555;53.248;10.336;2023-03-16T01:29:57;0.30;99.90
7028;DHT22;3555;53.248;10.336;2023-03-16T01:32:26;0.50;1.00
7028;DHT22;3555;53.248;10.336;2023-03-16T01:34:53;0.50;1.00
7028;DHT22;3555;53.248;10.336;2023-03-16T01:37:19;0.80;99.90
7028;DHT22;3555;53.248;10.336;2023-03-16T01:39:47;0.80;1.00
7028;DHT22;3555;53.248;10.336;2023-03-16T01:42:14;0.80;99.90
7028;DHT22;3555;53.248;10.336;2023-03-16T01:44:53;0.80;1.00
7028;DHT22;3555;53.248;10.336;2023-03-16T01:47:20;0.80;1.00
7028;DHT22;3555;53.248;10.336;2023-03-16T01:49:50;1.00;1.00
7028;DHT22;3555;53.248;10.336;2023-03-16T01:52:22;1.00;1.00
7028;DHT22;3555;53.248;10.336;2023-03-16T01:54:52;1.10;99.90
7028;DHT22;3555;53.248;10.336;2023-03-16T01:57:21;1.00;1.00
7028;DHT22;3555;53.248;10.336;2023-03-16T01:59:51;1.10;71.40
7028;DHT22;3555;53.248;10.336;2023-03-16T02:02:22;1.20;50.70
7028;DHT22;3555;53.248;10.336;2023-03-16T02:04:54;1.20;1.00
7028;DHT22;3555;53.248;10.336;2023-03-16T02:07:25;1.20;1.00
7028;DHT22;3555;53.248;10.336;2023-03-16T02:09:56;1.20;1.00
7028;DHT22;3555;53.248;10.336;2023-03-16T02:12:23;1.20;99.90
7028;DHT22;3555;53.248;10.336;2023-03-16T02:14:51;1.30;99.90
7028;DHT22;3555;53.248;10.336;2023-03-16T02:17:19;1.20;1.00
7028;DHT22;3555;53.248;10.336;2023-03-16T02:19:55;1.20;99.90
7028;DHT22;3555;53.248;10.336;2023-03-16T02:22:24;1.20;1.00
7028;DHT22;3555;53.248;10.336;2023-03-16T02:24:51;1.20;99.90
7028;DHT22;3555;53.248;10.336;2023-03-16T02:27:23;1.10;99.90
7028;DHT22;3555;53.248;10.336;2023-03-16T02:30:01;1.10;99.90
7028;DHT22;3555;53.248;10.336;2023-03-16T02:32:30;1.00;99.90
7028;DHT22;3555;53.248;10.336;2023-03-16T02:34:58;1.00;99.90
7028;DHT22;3555;53.248;10.336;2023-03-16T02:37:26;1.00;99.90
7028;DHT22;3555;53.248;10.336;2023-03-16T02:39:53;0.90;99.90
7028;DHT22;3555;53.248;10.336;2023-03-16T02:42:22;0.90;99.90
7028;DHT22;3555;53.248;10.336;2023-03-16T02:44:54;0.80;99.90
7028;DHT22;3555;53.248;10.336;2023-03-16T02:47:29;0.80;99.90
7028;DHT22;3555;53.248;10.336;2023-03-16T02:49:57;0.70;1.00
7028;DHT22;3555;53.248;10.336;2023-03-16T02:52:25;0.70;1.00
7028;DHT22;3555;53.248;10.336;2023-03-16T02:54:52;0.50;99.90
7028;DHT22;3555;53.248;10.336;2023-03-16T02:57:18;0.50;1.00
7028;DHT22;3555;53.248;10.336;2023-03-16T02:59:45;0.50;1.00
7028;DHT22;3555;53.248;10.336;2023-03-16T03:02:12;0.50;1.00
7028;DHT22;3555;53.248;10.336;2023-03-16T03:04:40;0.40;1.00
7028;DHT22;3555;53.248;10.336;2023-03-16T03:07:11;0.30;1.00
7028;DHT22;3555;53.248;10.336;2023-03-16T03:09:39;0.10;99.90
7028;DHT22;3555;53.248;10.336;2023-03-16T03:12:07;0.10;1.00
7028;DHT22;3555;53.248;10.336;2023-03-16T03:14:34;0.10;1.00
7028;DHT22;3555;53.248;10.336;2023-03-16T03:17:02;0.10;36.50
7028;DHT22;3555;53.248;10.336;2023-03-16T03:19:29;0.20;1.00
7028;DHT22;3555;53.248;10.336;2023-03-16T03:21:59;0.30;62.10
7028;DHT22;3555;53.248;10.336;2023-03-16T03:24:28;0.30;1.00
7028;DHT22;3555;53.248;10.336;2023-03-16T03:26:56;0.40;1.00
7028;DHT22;3555;53.248;10.336;2023-03-16T03:29:25;0.50;1.00
7028;DHT22;3555;53.248;10.336;2023-03-16T03:31:58;0.50;1.00
7028;DHT22;3555;53.248;10.336;2023-03-16T03:34:26;0.60;99.90
7028;DHT22;3555;53.248;10.336;2023-03-16T03:36:52;0.60;99.90
7028;DHT22;3555;53.248;10.336;2023-03-16T03:39:21;0.60;1.00
7028;DHT22;3555;53.248;10.336;2023-03-16T03:41:48;0.60;1.00
7028;DHT22;3555;53.248;10.336;2023-03-16T03:44:15;0.60;1.00
7028;DHT22;3555;53.248;10.336;2023-03-16T03:46:42;0.60;1.00
7028;DHT22;3555;53.248;10.336;2023-03-16T03:49:08;0.60;1.00
7028;DHT22;3555;53.248;10.336;2023-03-16T03:51:35;0.70;1.00
7028;DHT22;3555;53.248;10.336;2023-03-16T03:54:02;0.70;1.00
7028;DHT22;3555;53.248;10.336;2023-03-16T03:56:31;0.50;1.00
7028;DHT22;3555;53.248;10.336;2023-03-16T03:58:57;0.50;1.00
7028;DHT22;3555;53.248;10.336;2023-03-16T04:01:25;0.50;1.00
7028;DHT22;3555;53.248;10.336;2023-03-16T04:03:51;0.40;1.00
7028;DHT22;3555;53.248;10.336;2023-03-16T04:06:18;0.40;1.00
7028;DHT22;3555;53.248;10.336;2023-03-16T04:08:45;0.40;1.00
7028;DHT22;3555;53.248;10.336;2023-03-16T04:11:12;0.30;1.00
7028;DHT22;3555;53.248;10.336;2023-03-16T04:13:40;0.20;99.90
7028;DHT22;3555;53.248;10.336;2023-03-16T04:16:08;0.20;99.90
7028;DHT22;3555;53.248;10.336;2023-03-16T04:18:35;0.10;99.90
7028;DHT22;3555;53.248;10.336;2023-03-16T04:21:04;0.00;99.90
7028;DHT22;3555;53.248;10.336;2023-03-16T04:23:32;-0.20;1.00
7028;DHT22;3555;53.248;10.336;2023-03-16T04:26:00;-0.40;99.90
7028;DHT22;3555;53.248;10.336;2023-03-16T04:28:27;-0.60;1.00
7028;DHT22;3555;53.248;10.336;2023-03-16T04:30:55;-0.60;1.00
7028;DHT22;3555;53.248;10.336;2023-03-16T04:33:26;-0.70;1.00
7028;DHT22;3555;53.248;10.336;2023-03-16T04:35:53;-0.90;99.90
7028;DHT22;3555;53.248;10.336;2023-03-16T04:38:20;-1.00;1.00
7028;DHT22;3555;53.248;10.336;2023-03-16T04:40:47;-1.20;1.00
7028;DHT22;3555;53.248;10.336;2023-03-16T04:43:14;-1.20;1.00
7028;DHT22;3555;53.248;10.336;2023-03-16T04:45:41;-1.10;1.00
7028;DHT22;3555;53.248;10.336;2023-03-16T04:48:10;-1.20;1.00
7028;DHT22;3555;53.248;10.336;2023-03-16T04:50:37;-1.30;1.00
7028;DHT22;3555;53.248;10.336;2023-03-16T04:53:04;-1.20;1.00
7028;DHT22;3555;53.248;10.336;2023-03-16T04:55:31;-1.30;1.00
7028;DHT22;3555;53.248;10.336;2023-03-16T04:57:58;-1.40;80.80
7028;DHT22;3555;53.248;10.336;2023-03-16T05:00:25;-1.40;99.90
7028;DHT22;3555;53.248;10.336;2023-03-16T05:02:51;-1.40;99.90
7028;DHT22;3555;53.248;10.336;2023-03-16T05:05:20;-1.40;99.90
7028;DHT22;3555;53.248;10.336;2023-03-16T05:07:47;-1.40;99.90
7028;DHT22;3555;53.248;10.336;2023-03-16T05:10:16;-1.50;99.90
7028;DHT22;3555;53.248;10.336;2023-03-16T05:12:44;-1.40;99.90
7028;DHT22;3555;53.248;10.336;2023-03-16T05:15:11;-1.40;99.90
7028;DHT22;3555;53.248;10.336;2023-03-16T05:17:39;-1.50;99.90
7028;DHT22;3555;53.248;10.336;2023-03-16T05:20:08;-1.40;99.90
7028;DHT22;3555;53.248;10.336;2023-03-16T05:22:39;-1.50;99.90
7028;DHT22;3555;53.248;10.336;2023-03-16T05:25:07;-1.60;99.90
7028;DHT22;3555;53.248;10.336;2023-03-16T05:27:34;-1.60;99.90
7028;DHT22;3555;53.248;10.336;2023-03-16T05:30:00;-1.50;99.90
7028;DHT22;3555;53.248;10.336;2023-03-16T05:32:27;-1.70;99.90
7028;DHT22;3555;53.248;10.336;2023-03-16T05:34:54;-1.70;99.90
7028;DHT22;3555;53.248;10.336;2023-03-16T05:37:21;-1.70;99.90
7028;DHT22;3555;53.248;10.336;2023-03-16T05:39:50;-1.70;99.90
7028;DHT22;3555;53.248;10.336;2023-03-16T05:42:16;-1.60;99.90
7028;DHT22;3555;53.248;10.336;2023-03-16T05:44:44;-1.60;99.90
7028;DHT22;3555;53.248;10.336;2023-03-16T05:47:11;-1.60;99.90
7028;DHT22;3555;53.248;10.336;2023-03-16T05:49:38;-1.60;99.90
7028;DHT22;3555;53.248;10.336;2023-03-16T05:52:05;-1.60;99.90
7028;DHT22;3555;53.248;10.336;2023-03-16T05:54:32;-1.50;99.90
7028;DHT22;3555;53.248;10.336;2023-03-16T05:57:00;-1.60;99.90
7028;DHT22;3555;53.248;10.336;2023-03-16T05:59:27;-1.50;99.90
7028;DHT22;3555;53.248;10.336;2023-03-16T06:01:54;-1.40;99.90
7028;DHT22;3555;53.248;10.336;2023-03-16T06:04:21;-1.50;99.90
7028;DHT22;3555;53.248;10.336;2023-03-16T06:06:48;-1.50;99.90
7028;DHT22;3555;53.248;10.336;2023-03-16T06:09:14;-1.40;99.90
7028;DHT22;3555;53.248;10.336;2023-03-16T06:11:41;-1.40;99.90
7028;DHT22;3555;53.248;10.336;2023-03-16T06:14:10;-1.40;99.90
7028;DHT22;3555;53.248;10.336;2023-03-16T06:16:36;-1.30;99.90
7028;DHT22;3555;53.248;10.336;2023-03-16T06:19:03;-1.30;99.90
7028;DHT22;3555;53.248;10.336;2023-03-16T06:21:30;-1.20;99.90
7028;DHT22;3555;53.248;10.336;2023-03-16T06:23:57;-1.10;99.90
7028;DHT22;3555;53.248;10.336;2023-03-16T06:26:24;-1.00;99.90
7028;DHT22;3555;53.248;10.336;2023-03-16T06:28:51;-0.70;99.90
7028;DHT22;3555;53.248;10.336;2023-03-16T06:31:20;-0.50;99.90
7028;DHT22;3555;53.248;10.336;2023-03-16T06:33:46;-0.20;99.90
7028;DHT22;3555;53.248;10.336;2023-03-16T06:36:13;0.00;99.90
7028;DHT22;3555;53.248;10.336;2023-03-16T06:38:40;0.10;99.90
7028;DHT22;3555;53.248;10.336;2023-03-16T06:41:07;0.20;99.90
7028;DHT22;3555;53.248;10.336;2023-03-16T06:43:34;0.30;1.00
7028;DHT22;3555;53.248;10.336;2023-03-16T06:46:01;0.20;1.00
7028;DHT22;3555;53.248;10.336;2023-03-16T06:48:30;0.10;1.00
7028;DHT22;3555;53.248;10.336;2023-03-16T06:50:57;0.10;1.00
7028;DHT22;3555;53.248;10.336;2023-03-16T06:53:24;0.00;1.00
7028;DHT22;3555;53.248;10.336;2023-03-16T06:55:51;0.10;1.00
7028;DHT22;3555;53.248;10.336;2023-03-16T06:58:18;0.20;99.90
7028;DHT22;3555;53.248;10.336;2023-03-16T07:00:45;0.20;1.00
7028;DHT22;3555;53.248;10.336;2023-03-16T07:03:12;0.30;1.00
7028;DHT22;3555;53.248;10.336;2023-03-16T07:05:40;0.40;1.00
7028;DHT22;3555;53.248;10.336;2023-03-16T07:08:08;0.60;1.00
7028;DHT22;3555;53.248;10.336;2023-03-16T07:10:35;0.70;1.00
7028;DHT22;3555;53.248;10.336;2023-03-16T07:13:01;0.90;99.90
7028;DHT22;3555;53.248;10.336;2023-03-16T07:15:28;1.10;1.00
7028;DHT22;3555;53.248;10.336;2023-03-16T07:17:55;1.20;99.90
7028;DHT22;3555;53.248;10.336;2023-03-16T07:20:22;1.20;1.00
7028;DHT22;3555;53.248;10.336;2023-03-16T07:22:52;1.30;99.90
7028;DHT22;3555;53.248;10.336;2023-03-16T07:25:19;1.40;1.00
7028;DHT22;3555;53.248;10.336;2023-03-16T07:27:46;1.50;99.90
7028;DHT22;3555;53.248;10.336;2023-03-16T07:30:13;1.70;99.90
7028;DHT22;3555;53.248;10.336;2023-03-16T07:32:41;1.90;1.00
7028;DHT22;3555;53.248;10.336;2023-03-16T07:35:08;2.10;1.00
7028;DHT22;3555;53.248;10.336;2023-03-16T07:37:36;2.40;99.90
7028;DHT22;3555;53.248;10.336;2023-03-16T07:40:05;2.80;1.00
7028;DHT22;3555;53.248;10.336;2023-03-16T07:42:33;2.90;99.90
7028;DHT22;3555;53.248;10.336;2023-03-16T07:45:01;3.20;99.90
7028;DHT22;3555;53.248;10.336;2023-03-16T07:47:27;3.30;1.00
7028;DHT22;3555;53.248;10.336;2023-03-16T07:49:55;3.40;97.90
7028;DHT22;3555;53.248;10.336;2023-03-16T07:52:22;3.60;1.00
7028;DHT22;3555;53.248;10.336;2023-03-16T07:54:49;3.60;99.90
7028;DHT22;3555;53.248;10.336;2023-03-16T07:57:17;3.80;99.90
7028;DHT22;3555;53.248;10.336;2023-03-16T07:59:44;3.80;99.90
7028;DHT22;3555;53.248;10.336;2023-03-16T08:02:12;4.00;99.90
7028;DHT22;3555;53.248;10.336;2023-03-16T08:04:39;4.20;99.90
7028;DHT22;3555;53.248;10.336;2023-03-16T08:07:07;4.40;99.90
7028;DHT22;3555;53.248;10.336;2023-03-16T08:09:34;4.60;1.00
7028;DHT22;3555;53.248;10.336;2023-03-16T08:12:02;5.00;99.90
7028;DHT22;3555;53.248;10.336;2023-03-16T08:14:30;5.30;1.00
7028;DHT22;3555;53.248;10.336;2023-03-16T08:16:59;6.10;1.00
7028;DHT22;3555;53.248;10.336;2023-03-16T08:19:26;6.10;1.00
7028;DHT22;3555;53.248;10.336;2023-03-16T08:21:53;6.30;99.90
7028;DHT22;3555;53.248;10.336;2023-03-16T08:24:20;6.40;99.90
7028;DHT22;3555;53.248;10.336;2023-03-16T08:26:47;6.30;99.90
7028;DHT22;3555;53.248;10.336;2023-03-16T08:29:15;6.30;99.90
7028;DHT22;3555;53.248;10.336;2023-03-16T08:31:44;6.30;99.90
7028;DHT22;3555;53.248;10.336;2023-03-16T08:34:12;6.40;99.90
7028;DHT22;3555;53.248;10.336;2023-03-16T08:36:40;6.60;99.90
7028;DHT22;3555;53.248;10.336;2023-03-16T08:39:08;6.90;99.90
7028;DHT22;3555;53.248;10.336;2023-03-16T08:41:35;7.30;99.90
7028;DHT22;3555;53.248;10.336;2023-03-16T08:44:02;7.20;99.90
7028;DHT22;3555;53.248;10.336;2023-03-16T08:46:29;7.00;99.90
7028;DHT22;3555;53.248;10.336;2023-03-16T08:48:57;7.00;99.90
7028;DHT22;3555;53.248;10.336;2023-03-16T08:51:24;7.00;99.90
7028;DHT22;3555;53.248;10.336;2023-03-16T08:53:51;7.40;99.90
7028;DHT22;3555;53.248;10.336;2023-03-16T08:56:18;7.50;99.90
7028;DHT22;3555;53.248;10.336;2023-03-16T08:58:46;7.70;99.90
7028;DHT22;3555;53.248;10.336;2023-03-16T09:01:14;7.90;99.90
7028;DHT22;3555;53.248;10.336;2023-03-16T09:03:42;8.00;66.40
7028;DHT22;3555;53.248;10.336;2023-03-16T09:06:13;7.80;99.90
7028;DHT22;3555;53.248;10.336;2023-03-16T09:08:41;8.00;99.90
7028;DHT22;3555;53.248;10.336;2023-03-16T09:11:10;8.30;88.20
7028;DHT22;3555;53.248;10.336;2023-03-16T09:13:39;8.60;77.00
7028;DHT22;3555;53.248;10.336;2023-03-16T09:16:07;8.60;1.00
7028;DHT22;3555;53.248;10.336;2023-03-16T09:18:35;8.60;1.00
7028;DHT22;3555;53.248;10.336;2023-03-16T09:21:03;8.70;1.00
7028;DHT22;3555;53.248;10.336;2023-03-16T09:23:33;8.60;1.00
7028;DHT22;3555;53.248;10.336;2023-03-16T09:26:03;8.70;1.00
7028;DHT22;3555;53.248;10.336;2023-03-16T09:28:32;8.70;1.00
7028;DHT22;3555;53.248;10.336;2023-03-16T09:31:00;8.80;1.00
7028;DHT22;3555;53.248;10.336;2023-03-16T09:33:28;8.80;1.00
7028;DHT22;3555;53.248;10.336;2023-03-16T09:35:57;8.70;1.00
7028;DHT22;3555;53.248;10.336;2023-03-16T09:38:24;8.80;1.00
7028;DHT22;3555;53.248;10.336;2023-03-16T09:40:57;8.70;1.00
7028;DHT22;3555;53.248;10.336;2023-03-16T09:43:54;8.90;1.00
7028;DHT22;3555;53.248;10.336;2023-03-16T09:46:27;9.10;1.00
7028;DHT22;3555;53.248;10.336;2023-03-16T09:48:55;9.00;1.00
7028;DHT22;3555;53.248;10.336;2023-03-16T09:51:36;9.30;1.00
7028;DHT22;3555;53.248;10.336;2023-03-16T09:54:12;9.70;1.00
7028;DHT22;3555;53.248;10.336;2023-03-16T10:00:09;9.30;1.00
7028;DHT22;3555;53.248;10.336;2023-03-16T10:02:50;9.50;1.00
7028;DHT22;3555;53.248;10.336;2023-03-16T10:05:39;9.30;1.00
7028;DHT22;3555;53.248;10.336;2023-03-16T10:08:11;8.70;1.00
7028;DHT22;3555;53.248;10.336;2023-03-16T10:10:55;8.30;1.00
7028;DHT22;3555;53.248;10.336;2023-03-16T10:13:33;8.60;1.00
7028;DHT22;3555;53.248;10.336;2023-03-16T10:16:06;8.80;1.00
7028;DHT22;3555;53.248;10.336;2023-03-16T10:18:40;8.70;1.00
7028;DHT22;3555;53.248;10.336;2023-03-16T10:21:11;8.60;1.00
7028;DHT22;3555;53.248;10.336;2023-03-16T10:23:39;8.70;1.00
7028;DHT22;3555;53.248;10.336;2023-03-16T10:26:12;8.80;1.00
7028;DHT22;3555;53.248;10.336;2023-03-16T10:28:40;9.00;1.00
7028;DHT22;3555;53.248;10.336;2023-03-16T10:31:11;8.90;1.00
7028;DHT22;3555;53.248;10.336;2023-03-16T10:33:39;8.80;1.00
7028;DHT22;3555;53.248;10.336;2023-03-16T10:36:13;8.80;1.00
7028;DHT22;3555;53.248;10.336;2023-03-16T10:38:43;8.80;1.00
7028;DHT22;3555;53.248;10.336;2023-03-16T10:41:21;8.80;1.00
7028;DHT22;3555;53.248;10.336;2023-03-16T10:43:52;8.80;1.00
7028;DHT22;3555;53.248;10.336;2023-03-16T10:46:21;8.90;1.00
7028;DHT22;3555;53.248;10.336;2023-03-16T10:48:52;8.90;1.00
7028;DHT22;3555;53.248;10.336;2023-03-16T10:51:26;9.00;1.00
7028;DHT22;3555;53.248;10.336;2023-03-16T10:53:57;9.00;1.00
7028;DHT22;3555;53.248;10.336;2023-03-16T10:56:32;9.00;1.00
7028;DHT22;3555;53.248;10.336;2023-03-16T10:59:12;8.90;1.00
7028;DHT22;3555;53.248;10.336;2023-03-16T11:01:44;8.80;1.00
7028;DHT22;3555;53.248;10.336;2023-03-16T11:04:14;8.70;1.00
7028;DHT22;3555;53.248;10.336;2023-03-16T11:06:50;8.70;1.00
7028;DHT22;3555;53.248;10.336;2023-03-16T11:09:23;8.80;1.00
7028;DHT22;3555;53.248;10.336;2023-03-16T11:11:52;8.90;1.00
7028;DHT22;3555;53.248;10.336;2023-03-16T11:14:24;8.90;1.00
7028;DHT22;3555;53.248;10.336;2023-03-16T11:16:58;9.10;1.00
7028;DHT22;3555;53.248;10.336;2023-03-16T11:19:28;9.10;1.00
7028;DHT22;3555;53.248;10.336;2023-03-16T11:21:59;9.00;1.00
7028;DHT22;3555;53.248;10.336;2023-03-16T11:24:32;9.30;1.00
7028;DHT22;3555;53.248;10.336;2023-03-16T11:27:02;9.30;1.00
7028;DHT22;3555;53.248;10.336;2023-03-16T11:29:42;9.30;1.00
7028;DHT22;3555;53.248;10.336;2023-03-16T11:32:17;9.30;1.00
7028;DHT22;3555;53.248;10.336;2023-03-16T11:34:45;9.30;1.00
7028;DHT22;3555;53.248;10.336;2023-03-16T11:37:22;9.20;1.00
7028;DHT22;3555;53.248;10.336;2023-03-16T11:39:56;9.10;1.00
7028;DHT22;3555;53.248;10.336;2023-03-16T11:42:29;9.20;1.00
7028;DHT22;3555;53.248;10.336;2023-03-16T11:45:02;9.20;1.00
7028;DHT22;3555;53.248;10.336;2023-03-16T11:48:02;9.20;1.00
7028;DHT22;3555;53.248;10.336;2023-03-16T11:50:40;9.40;1.00
7028;DHT22;3555;53.248;10.336;2023-03-16T11:53:13;9.50;1.00
7028;DHT22;3555;53.248;10.336;2023-03-16T11:55:49;9.60;1.00
7028;DHT22;3555;53.248;10.336;2023-03-16T11:58:30;9.70;1.00
7028;DHT22;3555;53.248;10.336;2023-03-16T12:01:09;9.70;1.00
7028;DHT22;3555;53.248;10.336;2023-03-16T12:03:58;9.70;1.00
7028;DHT22;3555;53.248;10.336;2023-03-16T12:06:41;9.70;1.00
7028;DHT22;3555;53.248;10.336;2023-03-16T12:12:49;9.50;1.00
7028;DHT22;3555;53.248;10.336;2023-03-16T12:15:34;9.60;1.00
7028;DHT22;3555;53.248;10.336;2023-03-16T12:18:11;9.50;1.00
7028;DHT22;3555;53.248;10.336;2023-03-16T12:20:45;9.50;1.00
7028;DHT22;3555;53.248;10.336;2023-03-16T12:23:16;9.70;1.00
7028;DHT22;3555;53.248;10.336;2023-03-16T12:25:47;9.70;1.00
7028;DHT22;3555;53.248;10.336;2023-03-16T12:28:22;9.60;1.00
7028;DHT22;3555;53.248;10.336;2023-03-16T12:30:59;9.50;1.00
7028;DHT22;3555;53.248;10.336;2023-03-16T12:33:38;9.60;1.00
7028;DHT22;3555;53.248;10.336;2023-03-16T12:39:09;9.60;1.00
7028;DHT22;3555;53.248;10.336;2023-03-16T12:41:43;9.50;1.00
7028;DHT22;3555;53.248;10.336;2023-03-16T12:44:17;9.60;1.00
7028;DHT22;3555;53.248;10.336;2023-03-16T12:46:51;9.60;1.00
7028;DHT22;3555;53.248;10.336;2023-03-16T12:49:24;9.70;1.00
7028;DHT22;3555;53.248;10.336;2023-03-16T12:52:00;9.70;1.00
7028;DHT22;3555;53.248;10.336;2023-03-16T12:54:28;9.80;1.00
7028;DHT22;3555;53.248;10.336;2023-03-16T12:57:00;9.80;1.00
7028;DHT22;3555;53.248;10.336;2023-03-16T12:59:35;9.80;1.00
7028;DHT22;3555;53.248;10.336;2023-03-16T13:02:03;9.80;1.00
7028;DHT22;3555;53.248;10.336;2023-03-16T13:04:34;9.90;1.00
7028;DHT22;3555;53.248;10.336;2023-03-16T13:07:06;9.70;1.00
7028;DHT22;3555;53.248;10.336;2023-03-16T13:09:35;9.70;1.00
7028;DHT22;3555;53.248;10.336;2023-03-16T13:12:06;9.60;1.00
7028;DHT22;3555;53.248;10.336;2023-03-16T13:14:37;9.50;1.00
7028;DHT22;3555;53.248;10.336;2023-03-16T13:17:20;9.60;1.00
7028;DHT22;3555;53.248;10.336;2023-03-16T13:20:04;9.50;1.00
7028;DHT22;3555;53.248;10.336;2023-03-16T13:22:42;9.60;1.00
7028;DHT22;3555;53.248;10.336;2023-03-16T13:25:16;9.70;1.00
7028;DHT22;3555;53.248;10.336;2023-03-16T13:27:48;9.70;1.00
7028;DHT22;3555;53.248;10.336;2023-03-16T13:30:18;9.80;1.00
7028;DHT22;3555;53.248;10.336;2023-03-16T13:32:46;9.90;1.00
7028;DHT22;3555;53.248;10.336;2023-03-16T13:35:16;10.00;1.00
7028;DHT22;3555;53.248;10.336;2023-03-16T13:37:45;9.80;1.00
7028;DHT22;3555;53.248;10.336;2023-03-16T13:40:18;9.70;1.00
7028;DHT22;3555;53.248;10.336;2023-03-16T13:42:46;9.70;1.00
7028;DHT22;3555;53.248;10.336;2023-03-16T13:45:18;9.60;1.00
7028;DHT22;3555;53.248;10.336;2023-03-16T13:47:47;9.60;1.00
7028;DHT22;3555;53.248;10.336;2023-03-16T13:50:16;9.50;1.00
7028;DHT22;3555;53.248;10.336;2023-03-16T13:52:52;9.40;1.00
7028;DHT22;3555;53.248;10.336;2023-03-16T13:55:26;9.40;1.00
7028;DHT22;3555;53.248;10.336;2023-03-16T13:57:53;9.30;1.00
7028;DHT22;3555;53.248;10.336;2023-03-16T14:00:22;9.20;1.00
7028;DHT22;3555;53.248;10.336;2023-03-16T14:02:51;9.20;1.00
7028;DHT22;3555;53.248;10.336;2023-03-16T14:05:22;9.10;1.00
7028;DHT22;3555;53.248;10.336;2023-03-16T14:07:51;8.90;1.00
7028;DHT22;3555;53.248;10.336;2023-03-16T14:10:18;8.90;1.00
7028;DHT22;3555;53.248;10.336;2023-03-16T14:12:52;8.90;1.00
7028;DHT22;3555;53.248;10.336;2023-03-16T14:15:20;9.00;1.00
7028;DHT22;3555;53.248;10.336;2023-03-16T14:17:48;9.00;1.00
7028;DHT22;3555;53.248;10.336;2023-03-16T14:20:18;8.90;1.00
7028;DHT22;3555;53.248;10.336;2023-03-16T14:22:50;8.90;1.00
7028;DHT22;3555;53.248;10.336;2023-03-16T14:25:20;8.90;1.00
7028;DHT22;3555;53.248;10.336;2023-03-16T14:27:56;8.80;1.00
7028;DHT22;3555;53.248;10.336;2023-03-16T14:30:25;8.80;1.00
7028;DHT22;3555;53.248;10.336;2023-03-16T14:32:55;8.80;1.00
7028;DHT22;3555;53.248;10.336;2023-03-16T14:35:25;8.70;1.00
7028;DHT22;3555;53.248;10.336;2023-03-16T14:37:54;8.90;1.00
7028;DHT22;3555;53.248;10.336;2023-03-16T14:40:27;8.90;1.00
7028;DHT22;3555;53.248;10.336;2023-03-16T14:42:56;8.90;1.00
7028;DHT22;3555;53.248;10.336;2023-03-16T14:45:28;9.00;1.00
7028;DHT22;3555;53.248;10.336;2023-03-16T14:48:02;9.10;1.00
7028;DHT22;3555;53.248;10.336;2023-03-16T14:50:30;8.90;1.00
7028;DHT22;3555;53.248;10.336;2023-03-16T14:53:00;8.90;1.00
7028;DHT22;3555;53.248;10.336;2023-03-16T14:55:28;8.80;1.00
7028;DHT22;3555;53.248;10.336;2023-03-16T14:57:55;8.70;1.00
7028;DHT22;3555;53.248;10.336;2023-03-16T15:00:23;8.80;1.00
7028;DHT22;3555;53.248;10.336;2023-03-16T15:02:56;8.80;1.00
7028;DHT22;3555;53.248;10.336;2023-03-16T15:05:30;8.90;1.00
7028;DHT22;3555;53.248;10.336;2023-03-16T15:07:59;8.90;1.00
7028;DHT22;3555;53.248;10.336;2023-03-16T15:10:28;9.00;1.00
7028;DHT22;3555;53.248;10.336;2023-03-16T15:12:55;8.80;1.00
7028;DHT22;3555;53.248;10.336;2023-03-16T15:15:29;8.80;1.00
7028;DHT22;3555;53.248;10.336;2023-03-16T15:17:57;8.70;1.00
7028;DHT22;3555;53.248;10.336;2023-03-16T15:20:28;8.80;1.00
7028;DHT22;3555;53.248;10.336;2023-03-16T15:22:59;8.70;1.00
7028;DHT22;3555;53.248;10.336;2023-03-16T15:25:32;8.70;1.00
7028;DHT22;3555;53.248;10.336;2023-03-16T15:28:05;8.60;1.00
7028;DHT22;3555;53.248;10.336;2023-03-16T15:30:36;8.60;1.00
7028;DHT22;3555;53.248;10.336;2023-03-16T15:33:03;8.70;1.00
7028;DHT22;3555;53.248;10.336;2023-03-16T15:35:31;8.60;1.00
7028;DHT22;3555;53.248;10.336;2023-03-16T15:38:03;8.60;1.00
7028;DHT22;3555;53.248;10.336;2023-03-16T15:40:31;8.50;1.00
7028;DHT22;3555;53.248;10.336;2023-03-16T15:43:01;8.40;1.00
7028;DHT22;3555;53.248;10.336;2023-03-16T15:45:29;8.50;1.00
7028;DHT22;3555;53.248;10.336;2023-03-16T15:47:56;8.50;1.00
7028;DHT22;3555;53.248;10.336;2023-03-16T15:50:24;8.40;1.00
7028;DHT22;3555;53.248;10.336;2023-03-16T15:52:54;8.30;1.00
7028;DHT22;3555;53.248;10.336;2023-03-16T15:55:27;8.40;1.00
7028;DHT22;3555;53.248;10.336;2023-03-16T15:57:58;8.30;1.00
7028;DHT22;3555;53.248;10.336;2023-03-16T16:00:29;8.40;1.00
7028;DHT22;3555;53.248;10.336;2023-03-16T16:02:58;8.30;1.00
7028;DHT22;3555;53.248;10.336;2023-03-16T16:05:26;8.30;1.00
7028;DHT22;3555;53.248;10.336;2023-03-16T16:07:53;8.20;1.00
7028;DHT22;3555;53.248;10.336;2023-03-16T16:10:21;8.10;1.00
7028;DHT22;3555;53.248;10.336;2023-03-16T16:12:51;8.30;1.00
7028;DHT22;3555;53.248;10.336;2023-03-16T16:15:21;8.10;1.00
7028;DHT22;3555;53.248;10.336;2023-03-16T16:17:50;8.10;1.00
7028;DHT22;3555;53.248;10.336;2023-03-16T16:20:18;8.10;1.00
7028;DHT22;3555;53.248;10.336;2023-03-16T16:22:47;8.10;1.00
7028;DHT22;3555;53.248;10.336;2023-03-16T16:25:15;8.10;1.00
7028;DHT22;3555;53.248;10.336;2023-03-16T16:27:42;8.10;1.00
7028;DHT22;3555;53.248;10.336;2023-03-16T16:30:20;8.10;1.00
7028;DHT22;3555;53.248;10.336;2023-03-16T16:32:47;8.00;1.00
7028;DHT22;3555;53.248;10.336;2023-03-16T16:35:16;8.00;1.00